createdAt,value
2019-06-26T00:00:48.008Z,10.50
2019-06-26T00:03:14.251Z,10.13
2019-06-26T00:05:40.559Z,10.32
2019-06-26T00:08:07.017Z,10.23
2019-06-26T00:10:33.470Z,10.70
2019-06-26T00:12:59.723Z,10.45
2019-06-26T00:15:26.010Z,10.75
2019-06-26T00:17:52.251Z,10.03
2019-06-26T00:20:18.515Z,10.93
2019-06-26T00:22:44.761Z,9.83
2019-06-26T00:25:11.035Z,10.85
2019-06-26T00:27:37.461Z,10.15
2019-06-26T00:30:03.748Z,10.38
2019-06-26T00:32:29.998Z,10.35
2019-06-26T00:34:56.312Z,10.63
2019-06-26T00:37:22.624Z,9.88
2019-06-26T00:39:51.427Z,10.10
2019-06-26T00:42:17.815Z,10.45
2019-06-26T00:44:44.087Z,10.68
2019-06-26T00:47:10.322Z,10.18
2019-06-26T00:49:36.590Z,11.05
2019-06-26T00:52:02.882Z,10.03
2019-06-26T00:54:29.197Z,11.03
2019-06-26T00:56:55.479Z,10.88
2019-06-26T00:59:21.866Z,10.63
2019-06-26T01:01:48.189Z,10.53
2019-06-26T01:04:14.689Z,10.48
2019-06-26T01:06:40.955Z,10.13
2019-06-26T01:09:07.207Z,10.38
2019-06-26T01:11:33.494Z,10.25
2019-06-26T01:13:59.740Z,10.35
2019-06-26T01:16:26.029Z,10.78
2019-06-26T01:18:52.296Z,10.32
2019-06-26T01:21:18.547Z,10.58
2019-06-26T01:23:44.817Z,10.43
2019-06-26T01:26:11.077Z,10.23
2019-06-26T01:28:37.392Z,10.95
2019-06-26T01:31:05.063Z,11.05
2019-06-26T01:33:31.360Z,11.15
2019-06-26T01:35:57.704Z,10.93
2019-06-26T01:38:23.954Z,10.32
2019-06-26T01:40:50.252Z,10.68
2019-06-26T01:43:16.492Z,10.95
2019-06-26T01:45:42.774Z,10.18
2019-06-26T01:48:09.026Z,10.98
2019-06-26T01:50:35.280Z,11.30
2019-06-26T01:53:01.530Z,11.80
2019-06-26T01:55:27.798Z,11.05
2019-06-26T01:57:54.074Z,11.55
2019-06-26T02:00:20.327Z,11.20
2019-06-26T02:02:46.800Z,10.80
2019-06-26T02:05:13.098Z,11.53
2019-06-26T02:07:39.353Z,11.00
2019-06-26T02:10:05.626Z,10.72
2019-06-26T02:12:31.883Z,10.80
2019-06-26T02:17:43.523Z,10.30
2019-06-26T02:20:09.782Z,10.53
2019-06-26T02:22:36.047Z,10.18
2019-06-26T02:25:02.387Z,11.08
2019-06-26T02:27:30.946Z,10.85
2019-06-26T02:29:57.196Z,11.73
2019-06-26T02:32:23.581Z,10.30
2019-06-26T02:34:49.879Z,11.08
2019-06-26T02:37:16.132Z,11.95
2019-06-26T02:39:42.402Z,12.43
2019-06-26T02:42:08.639Z,11.65
2019-06-26T02:44:52.079Z,11.57
2019-06-26T02:47:18.195Z,12.40
2019-06-26T02:49:30.974Z,12.13
2019-06-26T02:51:57.236Z,12.65
2019-06-26T02:54:23.564Z,11.35
2019-06-26T02:56:49.880Z,12.65
2019-06-26T02:59:16.139Z,11.90
2019-06-26T03:01:42.378Z,12.03
2019-06-26T03:04:08.700Z,11.75
2019-06-26T03:06:35.032Z,12.23
2019-06-26T03:09:01.338Z,12.28
2019-06-26T03:11:27.598Z,11.63
2019-06-26T03:13:53.853Z,11.75
2019-06-26T03:16:20.094Z,12.33
2019-06-26T03:18:46.361Z,11.20
2019-06-26T03:21:12.606Z,11.50
2019-06-26T03:23:38.890Z,11.18
2019-06-26T03:26:05.139Z,12.37
2019-06-26T03:28:31.415Z,13.00
2019-06-26T03:30:57.652Z,12.33
2019-06-26T03:33:23.926Z,12.85
2019-06-26T03:35:50.253Z,12.47
2019-06-26T03:38:16.497Z,11.60
2019-06-26T03:40:42.762Z,11.83
2019-06-26T03:43:09.012Z,11.55
2019-06-26T03:45:35.597Z,12.28
2019-06-26T03:48:01.855Z,11.53
2019-06-26T03:50:28.114Z,11.08
2019-06-26T03:52:54.386Z,12.20
2019-06-26T03:55:20.657Z,12.30
2019-06-26T03:57:46.914Z,12.53
2019-06-26T04:00:13.220Z,12.60
2019-06-26T04:02:39.524Z,12.10
2019-06-26T04:05:05.830Z,13.62
2019-06-26T04:07:32.119Z,12.58
2019-06-26T04:09:58.395Z,12.63
2019-06-26T04:12:24.694Z,13.40
2019-06-26T04:14:50.946Z,12.58
2019-06-26T04:17:17.218Z,13.15
2019-06-26T04:19:43.446Z,11.70
2019-06-26T04:22:09.743Z,13.68
2019-06-26T04:24:35.991Z,13.58
2019-06-26T04:27:02.469Z,14.00
2019-06-26T04:29:28.805Z,13.03
2019-06-26T04:31:55.094Z,13.35
2019-06-26T04:34:21.337Z,13.15
2019-06-26T04:36:47.618Z,15.08
2019-06-26T04:39:13.862Z,14.85
2019-06-26T04:41:40.144Z,15.15
2019-06-26T04:44:06.392Z,14.58
2019-06-26T04:46:32.647Z,12.70
2019-06-26T04:48:58.896Z,13.18
2019-06-26T04:51:25.198Z,13.58
2019-06-26T04:53:51.434Z,15.90
2019-06-26T04:56:17.735Z,14.00
2019-06-26T04:58:44.042Z,14.55
2019-06-26T05:01:10.321Z,13.95
2019-06-26T05:03:36.568Z,12.47
2019-06-26T05:06:02.819Z,14.15
2019-06-26T05:08:29.104Z,16.67
2019-06-26T05:10:55.359Z,14.28
2019-06-26T05:13:21.927Z,14.73
2019-06-26T05:15:48.209Z,13.65
2019-06-26T05:18:14.495Z,14.18
2019-06-26T05:20:40.744Z,13.95
2019-06-26T05:23:07.004Z,12.43
2019-06-26T05:25:33.252Z,14.68
2019-06-26T05:27:59.566Z,12.28
2019-06-26T05:30:25.802Z,12.30
2019-06-26T05:32:52.230Z,12.75
2019-06-26T05:35:18.675Z,13.95
2019-06-26T05:37:44.950Z,14.03
2019-06-26T05:40:11.205Z,14.78
2019-06-26T05:42:37.470Z,13.83
2019-06-26T05:45:03.728Z,14.38
2019-06-26T05:47:30.064Z,14.95
2019-06-26T05:49:56.360Z,15.25
2019-06-26T05:52:22.663Z,14.80
2019-06-26T05:54:48.922Z,15.23
2019-06-26T05:57:15.175Z,14.10
2019-06-26T05:59:41.462Z,13.83
2019-06-26T06:02:07.709Z,12.93
2019-06-26T06:04:34.140Z,12.75
2019-06-26T06:07:00.384Z,12.78
2019-06-26T06:09:26.696Z,12.80
2019-06-26T06:11:52.932Z,12.65
2019-06-26T06:14:19.216Z,11.43
2019-06-26T06:16:47.749Z,11.28
2019-06-26T06:19:13.468Z,10.53
2019-06-26T06:21:39.706Z,9.70
2019-06-26T06:24:06.007Z,10.23
2019-06-26T06:26:32.238Z,9.95
2019-06-26T06:28:58.527Z,10.80
2019-06-26T06:31:24.783Z,10.60
2019-06-26T06:33:51.077Z,9.95
2019-06-26T06:36:17.306Z,9.48
2019-06-26T06:38:43.583Z,9.48
2019-06-26T06:41:09.854Z,8.70
2019-06-26T06:43:36.118Z,9.30
2019-06-26T06:46:02.464Z,9.73
2019-06-26T06:48:28.736Z,9.63
2019-06-26T06:50:55.073Z,9.50
2019-06-26T06:53:21.367Z,10.18
2019-06-26T06:55:47.627Z,9.68
2019-06-26T06:58:13.890Z,9.38
2019-06-26T07:00:40.146Z,9.73
2019-06-26T07:03:06.414Z,9.58
2019-06-26T07:05:32.697Z,10.10
2019-06-26T07:07:58.957Z,9.23
2019-06-26T07:10:25.235Z,9.18
2019-06-26T07:12:51.567Z,10.80
2019-06-26T07:15:17.880Z,9.45
2019-06-26T07:17:44.137Z,9.43
2019-06-26T07:20:10.417Z,9.30
2019-06-26T07:22:36.674Z,9.28
2019-06-26T07:25:02.943Z,8.75
2019-06-26T07:27:29.207Z,9.33
2019-06-26T07:29:55.484Z,9.05
2019-06-26T07:32:21.822Z,8.58
2019-06-26T07:34:48.086Z,9.23
2019-06-26T07:37:14.414Z,9.35
2019-06-26T07:39:40.677Z,9.03
2019-06-26T07:42:06.964Z,8.98
2019-06-26T07:44:33.211Z,8.75
2019-06-26T07:46:59.514Z,8.85
2019-06-26T07:49:25.759Z,9.33
2019-06-26T07:51:52.055Z,8.75
2019-06-26T07:54:18.383Z,8.55
2019-06-26T07:56:44.740Z,9.53
2019-06-26T07:59:11.103Z,8.55
2019-06-26T08:01:37.430Z,8.33
2019-06-26T08:04:04.042Z,9.00
2019-06-26T08:06:31.218Z,8.68
2019-06-26T08:08:57.466Z,8.73
2019-06-26T08:11:25.796Z,8.18
2019-06-26T08:13:52.099Z,8.35
2019-06-26T08:16:18.424Z,8.25
2019-06-26T08:18:44.728Z,7.90
2019-06-26T08:21:12.896Z,7.90
2019-06-26T08:23:39.001Z,8.03
2019-06-26T08:26:05.241Z,8.13
2019-06-26T08:28:31.511Z,9.45
2019-06-26T08:30:58.019Z,8.93
2019-06-26T08:33:24.292Z,9.48
2019-06-26T08:35:50.530Z,9.48
2019-06-26T08:38:16.804Z,8.83
2019-06-26T08:40:43.082Z,8.73
2019-06-26T08:43:09.433Z,8.65
2019-06-26T08:45:35.674Z,8.45
2019-06-26T08:48:16.910Z,8.30
2019-06-26T08:50:29.947Z,8.88
2019-06-26T08:52:56.439Z,8.15
2019-06-26T08:55:22.713Z,8.40
2019-06-26T08:57:51.450Z,8.33
2019-06-26T09:00:17.856Z,9.38
2019-06-26T09:02:44.455Z,9.70
2019-06-26T09:05:10.690Z,8.15
2019-06-26T09:07:36.972Z,8.40
2019-06-26T09:10:03.239Z,8.25
2019-06-26T09:12:29.478Z,8.68
2019-06-26T09:14:55.743Z,8.30
2019-06-26T09:17:21.996Z,8.30
2019-06-26T09:19:48.299Z,8.30
2019-06-26T09:22:14.604Z,8.20
2019-06-26T09:24:40.870Z,8.35
2019-06-26T09:27:07.121Z,8.03
2019-06-26T09:29:33.382Z,8.15
2019-06-26T09:31:59.707Z,8.40
2019-06-26T09:34:25.988Z,9.00
2019-06-26T09:36:52.230Z,8.23
2019-06-26T09:39:20.720Z,8.28
2019-06-26T09:41:46.991Z,7.72
2019-06-26T09:44:13.260Z,8.58
2019-06-26T09:46:39.504Z,8.93
2019-06-26T09:49:05.841Z,8.35
2019-06-26T09:51:32.084Z,10.40
2019-06-26T09:53:58.855Z,9.80
2019-06-26T09:56:25.132Z,11.60
2019-06-26T09:58:51.372Z,9.18
2019-06-26T10:01:17.672Z,8.18
2019-06-26T10:03:45.275Z,7.17
2019-06-26T10:06:11.878Z,8.55
2019-06-26T10:08:38.331Z,8.40
2019-06-26T10:11:04.702Z,7.45
2019-06-26T10:13:30.965Z,7.08
2019-06-26T10:16:00.445Z,6.92
2019-06-26T10:18:25.209Z,7.60
2019-06-26T10:20:51.576Z,6.87
2019-06-26T10:23:18.073Z,6.95
2019-06-26T10:25:44.408Z,7.62
2019-06-26T10:28:10.635Z,7.42
2019-06-26T10:30:36.943Z,9.48
2019-06-26T10:33:03.330Z,7.72
2019-06-26T10:35:29.781Z,6.92
2019-06-26T10:37:56.051Z,6.47
2019-06-26T10:40:22.287Z,5.97
2019-06-26T10:42:48.707Z,5.47
2019-06-26T10:45:14.958Z,6.35
2019-06-26T10:47:41.267Z,6.40
2019-06-26T10:50:07.524Z,6.72
2019-06-26T10:52:33.824Z,6.67
2019-06-26T10:55:00.146Z,6.00
2019-06-26T10:57:26.430Z,6.22
2019-06-26T10:59:55.629Z,6.20
2019-06-26T11:02:20.699Z,6.25
2019-06-26T11:04:46.957Z,6.53
2019-06-26T11:07:13.256Z,5.75
2019-06-26T11:09:39.572Z,6.28
2019-06-26T11:12:05.903Z,6.03
2019-06-26T11:14:32.204Z,5.62
2019-06-26T11:16:58.546Z,5.92
2019-06-26T11:19:24.835Z,5.70
2019-06-26T11:21:51.086Z,7.37
2019-06-26T11:24:17.357Z,6.42
2019-06-26T11:26:43.657Z,6.45
2019-06-26T11:29:09.954Z,6.33
2019-06-26T11:31:36.195Z,11.48
2019-06-26T11:34:02.642Z,6.90
2019-06-26T11:36:28.948Z,6.20
2019-06-26T11:38:55.284Z,5.62
2019-06-26T11:41:21.538Z,5.70
2019-06-26T11:43:48.002Z,6.08
2019-06-26T11:46:14.296Z,5.90
2019-06-26T11:48:40.624Z,5.78
2019-06-26T11:51:06.887Z,6.10
2019-06-26T11:53:33.250Z,5.42
2019-06-26T11:55:59.488Z,6.20
2019-06-26T11:58:25.753Z,5.85
2019-06-26T12:00:52.008Z,6.03
2019-06-26T12:03:18.309Z,5.80
2019-06-26T12:05:46.619Z,6.12
2019-06-26T12:08:12.886Z,6.08
2019-06-26T12:10:39.175Z,6.50
2019-06-26T12:13:05.447Z,6.08
2019-06-26T12:15:31.756Z,6.50
2019-06-26T12:17:58.020Z,5.83
2019-06-26T12:20:24.403Z,5.55
2019-06-26T12:22:50.635Z,6.37
2019-06-26T12:25:19.224Z,6.12
2019-06-26T12:27:45.466Z,6.20
2019-06-26T12:30:11.737Z,6.00
2019-06-26T12:32:42.107Z,6.08
2019-06-26T12:35:06.002Z,6.03
2019-06-26T12:37:37.687Z,5.95
2019-06-26T12:40:00.931Z,5.83
2019-06-26T12:42:27.282Z,6.20
2019-06-26T12:44:53.656Z,6.35
2019-06-26T12:47:19.906Z,6.20
2019-06-26T12:49:46.218Z,6.30
2019-06-26T12:52:12.474Z,6.80
2019-06-26T12:54:38.783Z,6.40
2019-06-26T12:57:05.054Z,6.60
2019-06-26T12:59:31.387Z,6.10
2019-06-26T13:01:57.681Z,6.70
2019-06-26T13:04:26.180Z,6.10
2019-06-26T13:06:52.515Z,7.08
2019-06-26T13:09:18.813Z,7.03
2019-06-26T13:11:45.121Z,7.08
2019-06-26T13:14:11.394Z,7.33
2019-06-26T13:16:37.693Z,6.80
2019-06-26T13:19:04.002Z,7.67
2019-06-26T13:21:30.247Z,9.95
2019-06-26T13:23:56.624Z,7.80
2019-06-26T13:26:22.909Z,7.17
2019-06-26T13:28:49.194Z,6.58
2019-06-26T13:31:15.491Z,7.20
2019-06-26T13:33:41.766Z,7.55
2019-06-26T13:36:08.108Z,6.75
2019-06-26T13:38:34.362Z,7.70
2019-06-26T13:41:00.868Z,6.92
2019-06-26T13:43:27.222Z,7.67
2019-06-26T13:45:53.516Z,7.00
2019-06-26T13:48:19.761Z,7.40
2019-06-26T13:50:46.084Z,7.53
2019-06-26T13:53:12.413Z,6.90
2019-06-26T13:55:38.698Z,7.20
2019-06-26T13:58:04.958Z,7.20
2019-06-26T14:00:31.211Z,7.03
2019-06-26T14:02:57.533Z,7.10
2019-06-26T14:05:23.851Z,7.25
2019-06-26T14:07:50.122Z,7.78
2019-06-26T14:10:16.374Z,7.20
2019-06-26T14:12:42.639Z,6.85
2019-06-26T14:15:08.894Z,7.58
2019-06-26T14:17:35.162Z,7.33
2019-06-26T14:20:01.537Z,8.00
2019-06-26T14:22:27.964Z,7.90
2019-06-26T14:24:54.421Z,7.53
2019-06-26T14:27:20.774Z,7.67
2019-06-26T14:29:47.033Z,8.00
2019-06-26T14:32:13.343Z,7.53
2019-06-26T14:34:39.589Z,7.55
2019-06-26T14:37:05.875Z,7.60
2019-06-26T14:39:32.146Z,7.22
2019-06-26T14:41:58.435Z,7.20
2019-06-26T14:44:24.704Z,7.50
2019-06-26T14:46:50.957Z,7.78
2019-06-26T14:49:17.243Z,7.90
2019-06-26T14:51:47.484Z,7.72
2019-06-26T14:54:11.671Z,8.45
2019-06-26T14:56:37.954Z,7.53
2019-06-26T14:59:04.242Z,8.23
2019-06-26T15:01:30.487Z,8.05
2019-06-26T15:03:56.759Z,8.08
2019-06-26T15:06:23.055Z,7.95
2019-06-26T15:08:49.338Z,8.18
2019-06-26T15:11:15.835Z,7.95
2019-06-26T15:13:42.411Z,7.40
2019-06-26T15:16:08.710Z,8.50
2019-06-26T15:18:34.985Z,9.10
2019-06-26T15:21:01.262Z,8.25
2019-06-26T15:23:27.578Z,7.60
2019-06-26T15:25:53.968Z,7.65
2019-06-26T15:28:20.265Z,8.50
2019-06-26T15:30:46.557Z,8.30
2019-06-26T15:33:12.872Z,9.23
2019-06-26T15:35:39.281Z,9.23
2019-06-26T15:38:05.596Z,8.60
2019-06-26T15:40:31.855Z,8.55
2019-06-26T15:42:58.114Z,9.43
2019-06-26T15:45:24.414Z,8.75
2019-06-26T15:47:50.696Z,8.53
2019-06-26T15:50:17.195Z,8.13
2019-06-26T15:52:43.439Z,8.68
2019-06-26T15:55:09.755Z,9.30
2019-06-26T15:57:35.990Z,9.15
2019-06-26T16:00:02.588Z,8.85
2019-06-26T16:02:30.035Z,8.93
2019-06-26T16:04:56.357Z,8.33
2019-06-26T16:07:22.663Z,8.80
2019-06-26T16:09:48.957Z,8.83
2019-06-26T16:12:15.210Z,9.98
2019-06-26T16:14:41.500Z,9.30
2019-06-26T16:17:07.882Z,8.93
2019-06-26T16:19:34.216Z,9.38
2019-06-26T16:22:00.504Z,8.93
2019-06-26T16:24:30.061Z,8.75
2019-06-26T16:26:54.751Z,8.85
2019-06-26T16:29:21.036Z,8.55
2019-06-26T16:31:47.297Z,8.70
2019-06-26T16:34:13.591Z,9.03
2019-06-26T16:36:39.927Z,8.83
2019-06-26T16:39:06.184Z,9.18
2019-06-26T16:41:32.468Z,9.00
2019-06-26T16:43:58.729Z,8.93
2019-06-26T16:46:25.027Z,9.70
2019-06-26T16:48:51.480Z,8.98
2019-06-26T16:51:17.781Z,9.18
2019-06-26T16:53:44.036Z,8.90
2019-06-26T16:56:10.323Z,9.05
2019-06-26T16:58:36.615Z,8.75
2019-06-26T17:01:02.895Z,9.25
2019-06-26T17:03:29.169Z,8.03
2019-06-26T17:05:55.500Z,8.15
2019-06-26T17:08:21.760Z,9.28
2019-06-26T17:10:48.109Z,8.40
2019-06-26T17:13:14.369Z,8.80
2019-06-26T17:15:40.670Z,8.60
2019-06-26T17:18:06.949Z,8.40
2019-06-26T17:20:33.190Z,9.58
2019-06-26T17:23:05.576Z,8.38
2019-06-26T17:25:27.544Z,8.80
2019-06-26T17:27:53.986Z,8.00
2019-06-26T17:30:20.327Z,8.93
2019-06-26T17:32:46.600Z,8.50
2019-06-26T17:35:12.847Z,8.23
2019-06-26T17:37:39.160Z,8.53
2019-06-26T17:40:05.467Z,8.38
2019-06-26T17:42:31.755Z,8.40
2019-06-26T17:44:58.004Z,9.85
2019-06-26T17:47:24.271Z,9.30
2019-06-26T17:49:50.524Z,9.58
2019-06-26T17:52:17.282Z,8.63
2019-06-26T17:54:43.561Z,9.00
2019-06-26T17:57:09.898Z,8.60
2019-06-26T17:59:36.169Z,9.58
2019-06-26T18:02:02.578Z,9.50
2019-06-26T18:04:29.063Z,9.35
2019-06-26T18:06:55.418Z,9.08
2019-06-26T18:09:21.704Z,9.43
2019-06-26T18:11:47.976Z,9.85
2019-06-26T18:14:14.232Z,9.35
2019-06-26T18:16:40.498Z,9.10
2019-06-26T18:19:06.759Z,9.15
2019-06-26T18:21:33.030Z,8.93
2019-06-26T18:23:59.354Z,8.75
2019-06-26T18:26:25.675Z,9.40
2019-06-26T18:28:51.976Z,9.40
2019-06-26T18:31:18.231Z,9.15
2019-06-26T18:33:44.535Z,9.03
2019-06-26T18:36:10.814Z,9.83
2019-06-26T18:38:37.122Z,9.40
2019-06-26T18:41:03.395Z,9.10
2019-06-26T18:43:29.684Z,8.93
2019-06-26T18:45:55.946Z,9.00
2019-06-26T18:48:24.881Z,9.33
2019-06-26T18:50:50.284Z,8.80
2019-06-26T18:53:16.663Z,9.93
2019-06-26T18:55:45.294Z,9.83
2019-06-26T18:58:11.575Z,9.65
2019-06-26T19:00:37.817Z,9.63
2019-06-26T19:03:04.437Z,9.38
2019-06-26T19:05:30.696Z,9.98
2019-06-26T19:07:59.367Z,11.22
2019-06-26T19:10:25.705Z,9.90
2019-06-26T19:12:51.999Z,10.95
2019-06-26T19:15:18.332Z,10.45
2019-06-26T19:17:44.587Z,10.15
2019-06-26T19:20:10.911Z,10.75
2019-06-26T19:22:37.204Z,10.90
2019-06-26T19:25:03.476Z,11.65
2019-06-26T19:27:29.746Z,11.60
2019-06-26T19:29:56.037Z,11.40
2019-06-26T19:32:22.291Z,10.78
2019-06-26T19:34:48.590Z,11.53
2019-06-26T19:37:14.869Z,10.60
2019-06-26T19:39:41.156Z,11.90
2019-06-26T19:42:07.400Z,10.90
2019-06-26T19:44:33.696Z,11.15
2019-06-26T19:46:59.953Z,11.80
2019-06-26T19:49:26.221Z,10.85
2019-06-26T19:51:52.515Z,12.15
2019-06-26T19:54:27.135Z,11.40
2019-06-26T19:56:46.817Z,11.33
2019-06-26T19:59:13.103Z,11.30
2019-06-26T20:01:39.429Z,12.20
2019-06-26T20:04:05.793Z,11.38
2019-06-26T20:06:32.141Z,11.68
2019-06-26T20:08:58.406Z,11.55
2019-06-26T20:11:24.710Z,12.23
2019-06-26T20:13:50.978Z,11.35
2019-06-26T20:16:17.287Z,11.35
2019-06-26T20:18:43.569Z,11.60
2019-06-26T20:21:09.840Z,11.60
2019-06-26T20:23:36.111Z,11.48
2019-06-26T20:26:02.516Z,11.20
2019-06-26T20:28:28.806Z,12.05
2019-06-26T20:30:57.098Z,11.15
2019-06-26T20:33:23.382Z,11.43
2019-06-26T20:35:49.666Z,11.35
2019-06-26T20:38:15.908Z,11.57
2019-06-26T20:40:45.593Z,10.50
2019-06-26T20:43:10.220Z,11.05
2019-06-26T20:45:36.489Z,11.30
2019-06-26T20:48:02.772Z,11.08
2019-06-26T20:50:29.283Z,10.35
2019-06-26T20:52:55.837Z,11.22
2019-06-26T20:55:22.279Z,10.55
2019-06-26T20:57:48.615Z,11.15
2019-06-26T21:00:14.896Z,11.05
2019-06-26T21:02:41.175Z,10.82
2019-06-26T21:05:07.486Z,10.80
2019-06-26T21:07:33.803Z,11.00
2019-06-26T21:10:00.043Z,10.75
2019-06-26T21:12:26.352Z,11.80
2019-06-26T21:14:52.622Z,11.65
2019-06-26T21:17:18.925Z,10.75
2019-06-26T21:19:45.197Z,11.22
2019-06-26T21:22:11.480Z,11.55
2019-06-26T21:24:37.730Z,11.83
2019-06-26T21:27:04.017Z,11.60
2019-06-26T21:29:30.289Z,11.08
2019-06-26T21:31:56.569Z,10.35
2019-06-26T21:34:22.829Z,9.65
2019-06-26T21:36:49.166Z,9.80
2019-06-26T21:39:15.484Z,10.55
2019-06-26T21:41:41.759Z,10.65
2019-06-26T21:44:08.057Z,10.28
2019-06-26T21:46:34.387Z,10.32
2019-06-26T21:49:01.225Z,10.00
2019-06-26T21:51:27.532Z,9.73
2019-06-26T21:53:53.819Z,9.35
2019-06-26T21:56:20.064Z,9.75
2019-06-26T21:58:48.427Z,10.38
2019-06-26T22:01:14.695Z,9.68
2019-06-26T22:03:40.978Z,9.63
2019-06-26T22:06:07.254Z,9.88
2019-06-26T22:08:33.569Z,10.20
2019-06-26T22:10:59.850Z,10.65
2019-06-26T22:13:26.140Z,9.70
2019-06-26T22:15:52.394Z,9.93
2019-06-26T22:18:18.671Z,9.63
2019-06-26T22:20:44.919Z,9.60
2019-06-26T22:23:11.407Z,10.08
2019-06-26T22:25:50.380Z,10.32
2019-06-26T22:28:05.717Z,9.83
2019-06-26T22:30:32.081Z,10.20
2019-06-26T22:32:58.371Z,9.78
2019-06-26T22:35:24.634Z,10.10
2019-06-26T22:37:50.962Z,9.98
2019-06-26T22:40:17.415Z,10.30
2019-06-26T22:42:43.771Z,10.10
2019-06-26T22:45:10.030Z,9.78
2019-06-26T22:47:36.268Z,9.60
2019-06-26T22:50:02.562Z,9.50
2019-06-26T22:52:28.805Z,9.93
2019-06-26T22:54:55.100Z,9.50
2019-06-26T22:57:21.351Z,9.38
2019-06-26T22:59:47.795Z,8.08
2019-06-26T23:02:14.056Z,8.58
2019-06-26T23:04:40.356Z,8.78
2019-06-26T23:07:06.629Z,8.48
2019-06-26T23:09:32.957Z,8.13
2019-06-26T23:11:59.229Z,8.10
2019-06-26T23:14:25.522Z,8.73
2019-06-26T23:16:51.793Z,8.35
2019-06-26T23:19:18.110Z,8.13
2019-06-26T23:21:44.365Z,8.00
2019-06-26T23:24:10.660Z,7.97
2019-06-26T23:26:36.917Z,7.87
2019-06-26T23:29:03.199Z,7.30
2019-06-26T23:31:29.597Z,7.90
2019-06-26T23:33:55.856Z,7.22
2019-06-26T23:36:22.143Z,7.70
2019-06-26T23:38:48.395Z,8.10
2019-06-26T23:41:17.886Z,7.65
2019-06-26T23:43:42.649Z,7.90
2019-06-26T23:46:08.925Z,7.30
2019-06-26T23:48:35.182Z,7.62
2019-06-26T23:51:01.687Z,7.97
2019-06-26T23:53:28.216Z,7.30
2019-06-26T23:55:54.508Z,7.97
2019-06-26T23:58:20.756Z,7.60
